This is the latest recevied weather packets stored in our database for station/object N5SNT-2. If no packets are shown the sender has not sent any weather packets the latest 10 day(s).
| Time | Temp. | Humidity | Pressure | Rain* | Wind** | Luminosity | Snow |
|---|---|---|---|---|---|---|---|
| 1777867043 | 20° C | 65% | 1019 hPa | 0 mm | - | 0 W/m² | - |
| 1777866743 | 20° C | 65% | 1019 hPa | 0 mm | - | 0 W/m² | - |
| 1777865843 | 20° C | 64% | 1019 hPa | 0 mm | - | 0 W/m² | - |
| 1777865543 | 20° C | 63% | 1019 hPa | 0 mm | - | 0 W/m² | - |
| 1777864644 | 20° C | 63% | 1019 hPa | 0 mm | - | 0 W/m² | - |
| 1777864044 | 20.56° C | 62% | 1019 hPa | 0 mm | - | 0 W/m² | - |
| 1777863744 | 20.56° C | 61% | 1019 hPa | 0 mm | - | 0 W/m² | - |
| 1777862844 | 21.11° C | 59% | 1019 hPa | 0 mm | - | 0 W/m² | - |
| 1777847543 | 25.56° C | 39% | 1019 hPa | 0 mm | - | 404 W/m² | - |
| 1777847244 | 25.56° C | 40% | 1019 hPa | 0 mm | - | 457 W/m² | - |
| 1777846644 | 25.56° C | 40% | 1019 hPa | 0 mm | - | 194 W/m² | - |
| 1777845743 | 25° C | 39% | 1020 hPa | 0 mm | - | 501 W/m² | - |
| 1777845443 | 25° C | 39% | 1020 hPa | 0 mm | - | 358 W/m² | - |
| 1777845143 | 25.56° C | 39% | 1020 hPa | 0 mm | - | 533 W/m² | - |
| 1777844243 | 25.56° C | 39% | 1020 hPa | 0 mm | - | 625 W/m² | - |
| 1777843943 | 25.56° C | 39% | 1020 hPa | 0 mm | - | 634 W/m² | - |
| 1777843643 | 25° C | 38% | 1020 hPa | 0 mm | - | 653 W/m² | - |
| 1777843344 | 25.56° C | 40% | 1021 hPa | 0 mm | - | 670 W/m² | - |
| 1777843043 | 25.56° C | 40% | 1021 hPa | 0 mm | - | 689 W/m² | - |
| 1777842743 | 25° C | 39% | 1021 hPa | 0 mm | - | 717 W/m² | - |
| 1777842444 | 25° C | 39% | 1021 hPa | 0 mm | - | 708 W/m² | - |
| 1777842145 | 25° C | 40% | 1021 hPa | 0 mm | - | 591 W/m² | - |
| 1777841543 | 25° C | 38% | 1021 hPa | 0 mm | - | 781 W/m² | - |
| 1777841243 | 25.56° C | 38% | 1021 hPa | 0 mm | - | 732 W/m² | - |
| 1777840643 | 25° C | 38% | 1021 hPa | 0 mm | - | 797 W/m² | - |
* Rain latest hour (hover to see other rain measurements)
** Current wind speed in m/s (hover to see current wind gust speed)